createdAt,value
2018-09-22T00:01:07.034Z,8.27
2018-09-22T00:03:35.272Z,9.20
2018-09-22T00:06:05.508Z,14.27
2018-09-22T00:08:33.739Z,8.00
2018-09-22T00:11:01.981Z,10.23
2018-09-22T00:13:30.252Z,10.33
2018-09-22T00:15:58.488Z,9.93
2018-09-22T00:18:26.719Z,9.63
2018-09-22T00:20:54.943Z,9.07
2018-09-22T00:23:23.192Z,11.20
2018-09-22T00:25:51.473Z,10.60
2018-09-22T00:28:19.718Z,9.40
2018-09-22T00:30:47.967Z,13.07
2018-09-22T00:33:16.200Z,9.63
2018-09-22T00:35:44.436Z,11.63
2018-09-22T00:38:12.714Z,12.43
2018-09-22T00:40:40.963Z,7.20
2018-09-22T00:43:09.190Z,7.93
2018-09-22T00:45:37.472Z,8.80
2018-09-22T00:48:05.733Z,9.43
2018-09-22T00:50:33.996Z,11.63
2018-09-22T00:53:02.212Z,7.47
2018-09-22T00:55:30.426Z,8.40
2018-09-22T00:57:58.652Z,8.97
2018-09-22T01:00:26.889Z,8.50
2018-09-22T01:02:55.259Z,7.60
2018-09-22T01:05:23.499Z,8.13
2018-09-22T01:07:51.717Z,9.97
2018-09-22T01:10:19.938Z,8.50
2018-09-22T01:12:48.219Z,9.47
2018-09-22T01:15:16.492Z,6.60
2018-09-22T01:17:44.743Z,11.07
2018-09-22T01:20:16.898Z,9.57
2018-09-22T01:22:45.140Z,9.00
2018-09-22T01:25:13.367Z,7.53
2018-09-22T01:27:43.779Z,12.27
2018-09-22T01:30:12.071Z,7.80
2018-09-22T01:32:40.330Z,7.70
2018-09-22T01:35:08.559Z,13.43
2018-09-22T01:37:42.837Z,7.50
2018-09-22T01:40:11.117Z,9.10
2018-09-22T01:42:39.395Z,7.20
2018-09-22T01:45:07.637Z,13.67
2018-09-22T01:47:35.884Z,9.07
2018-09-22T01:50:04.226Z,8.23
2018-09-22T01:52:32.547Z,9.07
2018-09-22T01:55:00.736Z,10.00
2018-09-22T01:57:28.945Z,14.47
2018-09-22T01:59:57.160Z,12.00
2018-09-22T02:02:25.446Z,8.00
2018-09-22T02:04:53.734Z,9.97
2018-09-22T02:07:22.012Z,10.37
2018-09-22T02:09:50.263Z,9.97
2018-09-22T02:12:18.548Z,7.37
2018-09-22T02:14:46.838Z,8.87
2018-09-22T02:17:15.151Z,10.63
2018-09-22T02:19:43.389Z,7.90
2018-09-22T02:22:11.675Z,8.17
2018-09-22T02:24:39.904Z,9.40
2018-09-22T02:27:08.135Z,7.80
2018-09-22T02:29:36.409Z,9.97
2018-09-22T02:32:04.643Z,10.17
2018-09-22T02:34:32.894Z,9.27
2018-09-22T02:37:01.125Z,12.07
2018-09-22T02:39:29.437Z,8.60
2018-09-22T02:41:57.716Z,8.00
2018-09-22T02:44:25.944Z,6.60
2018-09-22T02:46:54.187Z,8.20
2018-09-22T02:49:22.459Z,10.30
2018-09-22T02:51:50.792Z,12.50
2018-09-22T02:54:19.148Z,9.77
2018-09-22T02:56:47.376Z,6.00
2018-09-22T02:59:15.611Z,12.97
2018-09-22T03:01:44.098Z,7.87
2018-09-22T03:04:12.324Z,9.97
2018-09-22T03:06:40.592Z,9.03
2018-09-22T03:09:10.275Z,6.77
2018-09-22T03:11:38.487Z,10.13
2018-09-22T03:14:06.780Z,6.77
2018-09-22T03:16:35.052Z,10.23
2018-09-22T03:19:03.639Z,10.20
2018-09-22T03:21:31.869Z,7.33
2018-09-22T03:24:00.139Z,7.10
2018-09-22T03:26:28.418Z,7.17
2018-09-22T03:28:56.735Z,5.33
2018-09-22T03:31:24.999Z,8.13
2018-09-22T03:33:53.219Z,8.70
2018-09-22T03:36:21.443Z,7.20
2018-09-22T03:38:49.680Z,4.83
2018-09-22T03:41:17.891Z,8.20
2018-09-22T03:43:46.223Z,7.33
2018-09-22T03:46:14.464Z,10.27
2018-09-22T03:48:42.663Z,10.17
2018-09-22T03:51:10.923Z,9.37
2018-09-22T03:53:39.314Z,6.63
2018-09-22T03:56:07.626Z,5.83
2018-09-22T03:58:35.839Z,6.20
2018-09-22T04:01:04.144Z,13.13
2018-09-22T04:03:32.369Z,7.97
2018-09-22T04:06:02.634Z,8.87
2018-09-22T04:08:30.901Z,8.83
2018-09-22T04:10:59.122Z,8.67
2018-09-22T04:13:27.345Z,9.63
2018-09-22T04:15:55.555Z,9.40
2018-09-22T04:18:23.771Z,6.80
2018-09-22T04:20:52.037Z,9.83
2018-09-22T04:23:20.268Z,7.57
2018-09-22T04:25:48.589Z,9.33
2018-09-22T04:28:16.800Z,9.47
2018-09-22T04:30:45.059Z,6.33
2018-09-22T04:33:13.344Z,10.77
2018-09-22T04:35:41.576Z,10.43
2018-09-22T04:38:09.816Z,8.47
2018-09-22T04:40:38.052Z,9.13
2018-09-22T04:43:06.364Z,8.70
2018-09-22T04:45:34.625Z,11.03
2018-09-22T04:48:02.850Z,8.83
2018-09-22T04:50:31.059Z,6.53
2018-09-22T04:52:59.268Z,9.43
2018-09-22T04:55:27.480Z,8.17
2018-09-22T04:57:55.731Z,11.77
2018-09-22T05:00:23.955Z,11.57
2018-09-22T05:02:52.197Z,8.00
2018-09-22T05:05:20.407Z,9.10
2018-09-22T05:07:48.664Z,9.93
2018-09-22T05:10:16.937Z,7.97
2018-09-22T05:12:45.216Z,10.57
2018-09-22T05:15:13.438Z,7.20
2018-09-22T05:17:41.667Z,9.43
2018-09-22T05:20:09.887Z,8.30
2018-09-22T05:22:38.123Z,8.27
2018-09-22T05:25:06.435Z,7.63
2018-09-22T05:27:34.663Z,7.53
2018-09-22T05:30:03.054Z,7.00
2018-09-22T05:32:31.288Z,9.40
2018-09-22T05:34:59.543Z,8.13
2018-09-22T05:37:27.747Z,7.70
2018-09-22T05:39:55.970Z,6.47
2018-09-22T05:42:24.247Z,6.43
2018-09-22T05:44:52.459Z,4.47
2018-09-22T05:47:20.702Z,6.97
2018-09-22T05:49:48.917Z,5.80
2018-09-22T05:52:17.224Z,6.93
2018-09-22T05:54:45.447Z,6.40
2018-09-22T05:57:13.668Z,5.43
2018-09-22T05:59:41.935Z,6.90
2018-09-22T06:02:10.161Z,5.03
2018-09-22T06:04:38.385Z,7.70
2018-09-22T06:07:06.607Z,10.63
2018-09-22T06:09:34.886Z,6.13
2018-09-22T06:12:03.168Z,6.70
2018-09-22T06:14:31.395Z,6.53
2018-09-22T06:16:59.601Z,6.73
2018-09-22T06:19:27.893Z,9.47
2018-09-22T06:21:56.124Z,4.33
2018-09-22T06:24:24.756Z,7.80
2018-09-22T06:26:52.963Z,5.33
2018-09-22T06:29:21.220Z,6.37
2018-09-22T06:31:49.496Z,4.40
2018-09-22T06:34:17.709Z,5.97
2018-09-22T06:36:45.956Z,4.80
2018-09-22T06:39:14.240Z,8.20
2018-09-22T06:41:42.443Z,3.40
2018-09-22T06:44:10.663Z,4.73
2018-09-22T06:46:38.898Z,6.20
2018-09-22T06:49:07.191Z,6.07
2018-09-22T06:51:35.438Z,7.73
2018-09-22T06:54:03.668Z,3.83
2018-09-22T06:56:31.895Z,5.87
2018-09-22T06:59:00.148Z,7.33
2018-09-22T07:01:28.399Z,3.57
2018-09-22T07:03:56.600Z,3.50
2018-09-22T07:06:24.881Z,6.13
2018-09-22T07:08:53.060Z,5.77
2018-09-22T07:11:21.254Z,4.90
2018-09-22T07:13:49.508Z,7.17
2018-09-22T07:16:17.715Z,4.63
2018-09-22T07:18:45.919Z,6.20
2018-09-22T07:21:14.115Z,4.27
2018-09-22T07:23:42.315Z,6.17
2018-09-22T07:26:10.587Z,6.03
2018-09-22T07:28:38.779Z,4.53
2018-09-22T07:31:07.063Z,5.77
2018-09-22T07:33:35.259Z,5.33
2018-09-22T07:36:03.571Z,5.97
2018-09-22T07:38:31.797Z,4.00
2018-09-22T07:41:00.080Z,6.43
2018-09-22T07:43:28.287Z,7.53
2018-09-22T07:45:56.498Z,6.90
2018-09-22T07:48:24.686Z,3.37
2018-09-22T07:50:52.903Z,6.97
2018-09-22T07:53:21.135Z,5.87
2018-09-22T07:55:49.390Z,8.83
2018-09-22T07:58:17.592Z,5.10
2018-09-22T08:00:45.787Z,9.33
2018-09-22T08:03:13.999Z,5.47
2018-09-22T08:05:42.215Z,5.47
2018-09-22T08:08:10.431Z,13.30
2018-09-22T08:10:38.638Z,6.03
2018-09-22T08:13:07.043Z,14.13
2018-09-22T08:15:35.247Z,13.80
2018-09-22T08:18:03.459Z,7.87
2018-09-22T08:20:31.652Z,5.23
2018-09-22T08:22:59.859Z,7.20
2018-09-22T08:25:28.096Z,6.57
2018-09-22T08:27:56.287Z,11.13
2018-09-22T08:30:24.539Z,6.27
2018-09-22T08:32:52.884Z,5.27
2018-09-22T08:35:21.088Z,3.10
2018-09-22T08:37:49.331Z,3.53
2018-09-22T08:40:17.641Z,5.10
2018-09-22T08:42:45.877Z,2.30
2018-09-22T08:45:14.115Z,5.73
2018-09-22T08:47:42.327Z,6.07
2018-09-22T08:50:10.684Z,6.30
2018-09-22T08:52:38.871Z,4.00
2018-09-22T08:55:07.299Z,6.63
2018-09-22T08:57:35.499Z,6.40
2018-09-22T09:00:03.823Z,5.87
2018-09-22T09:02:32.068Z,6.50
2018-09-22T09:05:00.339Z,7.47
2018-09-22T09:07:28.504Z,8.87
2018-09-22T09:09:56.866Z,5.27
2018-09-22T09:12:25.099Z,7.57
2018-09-22T09:14:53.339Z,7.30
2018-09-22T09:17:21.569Z,7.97
2018-09-22T09:19:49.789Z,6.30
2018-09-22T09:22:18.098Z,10.30
2018-09-22T09:24:46.660Z,5.37
2018-09-22T09:27:14.933Z,7.13
2018-09-22T09:29:43.151Z,5.10
2018-09-22T09:32:11.436Z,6.53
2018-09-22T09:34:40.464Z,4.50
2018-09-22T09:37:08.691Z,5.23
2018-09-22T09:39:37.041Z,7.00
2018-09-22T09:42:05.413Z,5.50
2018-09-22T09:44:33.641Z,4.10
2018-09-22T09:47:02.008Z,6.73
2018-09-22T09:49:30.213Z,9.30
2018-09-22T09:51:58.452Z,5.50
2018-09-22T09:54:26.720Z,4.10
2018-09-22T09:56:54.963Z,3.13
2018-09-22T09:59:23.163Z,8.23
2018-09-22T10:01:51.363Z,3.53
2018-09-22T10:04:19.620Z,4.90
2018-09-22T10:06:47.819Z,6.90
2018-09-22T10:09:16.019Z,6.37
2018-09-22T10:11:44.218Z,5.23
2018-09-22T10:14:12.455Z,7.47
2018-09-22T10:16:40.727Z,4.53
2018-09-22T10:19:08.940Z,6.03
2018-09-22T10:21:37.157Z,4.90
2018-09-22T10:24:05.564Z,2.37
2018-09-22T10:26:33.759Z,3.90
2018-09-22T10:29:02.100Z,2.17
2018-09-22T10:31:30.307Z,5.80
2018-09-22T10:33:58.506Z,3.07
2018-09-22T10:36:27.263Z,5.23
2018-09-22T10:38:55.476Z,2.23
2018-09-22T10:41:23.783Z,5.23
2018-09-22T10:43:52.007Z,3.60
2018-09-22T10:46:20.229Z,6.20
2018-09-22T10:48:48.437Z,5.40
2018-09-22T10:51:16.867Z,3.33
2018-09-22T10:53:45.124Z,6.07
2018-09-22T10:56:13.364Z,4.63
2018-09-22T10:58:41.615Z,5.03
2018-09-22T11:01:09.811Z,2.27
2018-09-22T11:03:38.043Z,2.73
2018-09-22T11:06:06.403Z,5.17
2018-09-22T11:08:35.387Z,4.67
2018-09-22T11:11:03.709Z,4.60
2018-09-22T11:13:31.941Z,3.87
2018-09-22T11:16:00.213Z,4.37
2018-09-22T11:18:28.494Z,3.23
2018-09-22T11:20:56.767Z,3.90
2018-09-22T11:23:24.999Z,3.23
2018-09-22T11:25:53.355Z,3.30
2018-09-22T11:28:22.405Z,4.23
2018-09-22T11:30:50.761Z,5.00
2018-09-22T11:33:19.043Z,6.07
2018-09-22T11:35:47.418Z,3.10
2018-09-22T11:38:15.681Z,2.10
2018-09-22T11:40:44.168Z,5.63
2018-09-22T11:43:12.462Z,7.07
2018-09-22T11:45:40.728Z,2.67
2018-09-22T11:48:11.428Z,3.47
2018-09-22T11:50:39.678Z,3.83
2018-09-22T11:53:07.910Z,3.57
2018-09-22T11:55:36.180Z,4.63
2018-09-22T11:58:04.441Z,2.17
2018-09-22T12:00:32.774Z,5.50
2018-09-22T12:03:01.154Z,3.20
2018-09-22T12:05:29.435Z,2.70
2018-09-22T12:07:57.751Z,6.93
2018-09-22T12:10:26.285Z,2.93
2018-09-22T12:12:54.512Z,3.77
2018-09-22T12:15:22.764Z,3.03
2018-09-22T12:17:51.033Z,3.60
2018-09-22T12:20:19.307Z,4.53
2018-09-22T12:22:47.594Z,4.33
2018-09-22T12:25:15.819Z,3.00
2018-09-22T12:27:44.085Z,5.43
2018-09-22T12:30:12.369Z,6.87
2018-09-22T12:32:40.667Z,4.00
2018-09-22T12:35:08.917Z,4.30
2018-09-22T12:37:37.178Z,5.40
2018-09-22T12:40:05.521Z,4.00
2018-09-22T12:42:33.823Z,4.93
2018-09-22T12:45:02.093Z,1.63
2018-09-22T12:47:30.436Z,4.03
2018-09-22T12:49:58.721Z,2.47
2018-09-22T12:52:27.444Z,2.53
2018-09-22T12:54:55.856Z,3.17
2018-09-22T12:57:24.134Z,4.70
2018-09-22T12:59:52.972Z,3.90
2018-09-22T13:02:21.215Z,5.93
2018-09-22T13:04:49.450Z,7.27
2018-09-22T13:07:17.703Z,3.83
2018-09-22T13:09:45.986Z,2.80
2018-09-22T13:12:14.241Z,6.27
2018-09-22T13:14:42.516Z,3.53
2018-09-22T13:17:10.747Z,4.70
2018-09-22T13:19:39.023Z,3.43
2018-09-22T13:22:07.356Z,2.20
2018-09-22T13:24:35.636Z,3.07
2018-09-22T13:27:03.887Z,2.77
2018-09-22T13:29:32.107Z,3.33
2018-09-22T13:32:00.398Z,3.43
2018-09-22T13:34:28.687Z,2.77
2018-09-22T14:00:42.645Z,6.80
2018-09-22T14:03:10.911Z,4.93
2018-09-22T14:05:39.172Z,4.87
2018-09-22T14:08:07.412Z,4.77
2018-09-22T14:10:35.816Z,3.33
2018-09-22T14:13:04.072Z,2.97
2018-09-22T14:15:32.382Z,4.07
2018-09-22T14:18:00.697Z,3.17
2018-09-22T14:20:28.969Z,5.97
2018-09-22T14:22:57.245Z,4.97
2018-09-22T14:25:25.531Z,4.03
2018-09-22T14:27:56.071Z,6.50
2018-09-22T14:30:24.395Z,4.13
2018-09-22T14:32:52.681Z,4.93
2018-09-22T14:35:20.931Z,4.77
2018-09-22T14:37:49.203Z,3.13
2018-09-22T14:40:17.490Z,3.37
2018-09-22T14:42:45.730Z,3.10
2018-09-22T14:45:13.957Z,4.03
2018-09-22T14:47:42.225Z,4.87
2018-09-22T14:50:10.492Z,4.93
2018-09-22T14:52:38.765Z,5.57
2018-09-22T14:55:07.161Z,4.53
2018-09-22T14:57:35.343Z,3.77
2018-09-22T15:00:03.623Z,3.37
2018-09-22T15:02:31.851Z,6.60
2018-09-22T15:05:00.039Z,5.07
2018-09-22T15:07:28.322Z,5.23
2018-09-22T15:09:56.636Z,4.17
2018-09-22T15:12:24.826Z,5.33
2018-09-22T15:14:53.059Z,4.13
2018-09-22T15:17:21.385Z,3.87
2018-09-22T15:19:49.659Z,4.03
2018-09-22T15:22:18.749Z,4.60
2018-09-22T15:24:47.042Z,4.70
2018-09-22T15:27:15.275Z,5.70
2018-09-22T15:29:43.923Z,4.30
2018-09-22T15:32:12.143Z,3.97
2018-09-22T15:34:40.378Z,4.90
2018-09-22T15:37:08.706Z,4.50
2018-09-22T15:39:36.988Z,5.03
2018-09-22T15:42:05.339Z,3.97
2018-09-22T15:44:33.526Z,10.30
2018-09-22T15:47:01.729Z,4.73
2018-09-22T15:49:29.940Z,4.90
2018-09-22T15:51:58.207Z,6.87
2018-09-22T15:54:26.449Z,4.43
2018-09-22T15:56:54.656Z,3.60
2018-09-22T15:59:22.907Z,4.27
2018-09-22T16:01:51.114Z,2.97
2018-09-22T16:04:19.340Z,3.13
2018-09-22T16:06:47.566Z,6.70
2018-09-22T16:09:15.805Z,2.23
2018-09-22T16:11:44.015Z,4.43
2018-09-22T16:14:12.243Z,5.07
2018-09-22T16:16:40.484Z,5.43
2018-09-22T16:19:08.689Z,3.00
2018-09-22T16:21:36.974Z,4.57
2018-09-22T16:24:05.204Z,2.20
2018-09-22T16:26:33.508Z,4.97
2018-09-22T16:29:01.712Z,5.77
2018-09-22T16:31:29.924Z,3.53
2018-09-22T16:33:58.226Z,4.97
2018-09-22T16:36:26.433Z,4.73
2018-09-22T16:38:54.632Z,6.93
2018-09-22T16:41:22.843Z,5.50
2018-09-22T16:43:51.221Z,9.33
2018-09-22T16:46:19.491Z,6.20
2018-09-22T16:48:47.688Z,7.13
2018-09-22T16:51:15.899Z,6.27
2018-09-22T16:53:44.145Z,5.73
2018-09-22T16:56:12.341Z,5.10
2018-09-22T16:58:40.572Z,5.20
2018-09-22T17:01:08.784Z,6.77
2018-09-22T17:03:36.980Z,4.40
2018-09-22T17:06:05.187Z,5.33
2018-09-22T17:08:33.392Z,4.20
2018-09-22T17:11:01.648Z,5.67
2018-09-22T17:13:29.860Z,5.47
2018-09-22T17:15:58.129Z,5.63
2018-09-22T17:18:26.307Z,5.90
2018-09-22T17:20:54.511Z,7.53
2018-09-22T17:23:22.739Z,5.47
2018-09-22T17:25:50.949Z,4.47
2018-09-22T17:28:19.183Z,9.03
2018-09-22T17:30:47.424Z,6.13
2018-09-22T17:33:15.652Z,6.50
2018-09-22T17:35:43.907Z,7.80
2018-09-22T17:38:12.523Z,6.33
2018-09-22T17:40:40.877Z,5.90
2018-09-22T17:43:09.111Z,5.63
2018-09-22T17:45:37.374Z,5.50
2018-09-22T17:48:05.632Z,6.93
2018-09-22T17:50:33.843Z,6.17
2018-09-22T17:53:02.089Z,5.77
2018-09-22T17:55:30.308Z,7.70
2018-09-22T17:57:58.544Z,5.53
2018-09-22T18:00:26.871Z,5.47
2018-09-22T18:02:55.079Z,4.93
2018-09-22T18:05:23.287Z,5.77
2018-09-22T18:07:51.496Z,5.70
2018-09-22T18:10:19.712Z,4.83
2018-09-22T18:12:47.963Z,6.10
2018-09-22T18:15:16.209Z,5.60
2018-09-22T18:17:44.432Z,5.53
2018-09-22T18:20:12.654Z,7.30
2018-09-22T18:22:40.858Z,5.77
2018-09-22T18:25:09.172Z,7.07
2018-09-22T18:27:37.456Z,7.30
2018-09-22T18:30:05.873Z,4.50
2018-09-22T18:32:34.087Z,7.47
2018-09-22T18:35:02.407Z,5.73
2018-09-22T18:37:30.714Z,6.47
2018-09-22T18:39:58.940Z,7.50
2018-09-22T18:42:27.253Z,10.93
2018-09-22T18:44:55.545Z,11.93
2018-09-22T18:47:23.899Z,12.43
2018-09-22T18:49:52.224Z,9.73
2018-09-22T18:52:20.496Z,7.43
2018-09-22T18:54:48.707Z,11.73
2018-09-22T18:57:16.935Z,7.90
2018-09-22T18:59:45.183Z,7.40
2018-09-22T19:02:13.451Z,8.20
2018-09-22T19:04:41.683Z,8.07
2018-09-22T19:07:09.952Z,11.57
2018-09-22T19:09:38.262Z,7.43
2018-09-22T19:12:06.548Z,10.00
2018-09-22T19:14:41.042Z,8.83
2018-09-22T19:17:15.006Z,7.30
2018-09-22T19:20:05.433Z,9.50
2018-09-22T19:22:41.077Z,7.73
2018-09-22T19:25:12.576Z,6.27
2018-09-22T19:27:46.169Z,8.17
2018-09-22T19:30:19.524Z,6.57
2018-09-22T19:32:50.821Z,10.43
2018-09-22T19:35:23.667Z,6.87
2018-09-22T19:37:54.785Z,7.10
2018-09-22T19:40:27.823Z,8.73
2018-09-22T19:42:59.768Z,5.63
2018-09-22T19:45:33.993Z,7.70
2018-09-22T19:48:14.940Z,5.97
2018-09-22T19:50:50.197Z,7.00
2018-09-22T19:53:18.504Z,8.90
2018-09-22T19:55:46.724Z,8.43
2018-09-22T19:58:14.937Z,8.07
2018-09-22T20:00:43.193Z,6.17
2018-09-22T20:03:11.458Z,8.83
2018-09-22T20:05:39.716Z,10.30
2018-09-22T20:08:07.944Z,8.43
2018-09-22T20:10:38.151Z,9.33
2018-09-22T20:13:06.422Z,7.77
2018-09-22T20:15:34.684Z,7.87
2018-09-22T20:18:02.885Z,7.60
2018-09-22T20:20:31.102Z,8.07
2018-09-22T20:22:59.293Z,6.87
2018-09-22T20:25:27.511Z,6.40
2018-09-22T20:27:55.783Z,10.93
2018-09-22T20:30:24.017Z,10.17
2018-09-22T20:32:52.303Z,8.70
2018-09-22T20:35:20.528Z,8.47
2018-09-22T20:37:48.814Z,7.83
2018-09-22T20:40:17.056Z,9.40
2018-09-22T20:42:45.259Z,9.10
2018-09-22T20:45:13.476Z,10.13
2018-09-22T20:47:41.679Z,11.17
2018-09-22T20:50:14.767Z,6.83
2018-09-22T20:52:43.016Z,9.67
2018-09-22T20:55:11.333Z,8.43
2018-09-22T20:57:39.544Z,8.97
2018-09-22T21:00:08.228Z,7.83
2018-09-22T21:02:36.473Z,8.27
2018-09-22T21:05:04.935Z,8.97
2018-09-22T21:07:33.150Z,11.13
2018-09-22T21:10:01.401Z,10.50
2018-09-22T21:12:29.635Z,14.43
2018-09-22T21:14:57.818Z,9.67
2018-09-22T21:17:26.093Z,10.73
2018-09-22T21:19:54.276Z,11.77
2018-09-22T21:22:22.591Z,8.23
2018-09-22T21:24:50.823Z,8.07
2018-09-22T21:27:19.085Z,7.60
2018-09-22T21:29:47.341Z,8.80
2018-09-22T21:32:15.557Z,10.63
2018-09-22T21:34:43.793Z,7.27
2018-09-22T21:37:12.029Z,9.23
2018-09-22T21:39:40.316Z,7.80
2018-09-22T21:42:09.377Z,13.13
2018-09-22T21:44:37.626Z,11.27
2018-09-22T21:47:06.044Z,7.43
2018-09-22T21:52:08.666Z,9.27
2018-09-22T21:54:36.981Z,7.50
2018-09-22T21:57:05.200Z,7.40
2018-09-22T21:59:33.424Z,11.27
2018-09-22T22:02:01.650Z,9.60
2018-09-22T22:04:29.870Z,11.37
2018-09-22T22:06:58.129Z,10.37
2018-09-22T22:09:26.344Z,11.70
2018-09-22T22:11:54.604Z,7.90
2018-09-22T22:14:22.823Z,10.60
2018-09-22T22:16:51.052Z,10.13
2018-09-22T22:19:19.305Z,10.43
2018-09-22T22:21:47.518Z,8.83
2018-09-22T22:24:15.722Z,8.83
2018-09-22T22:26:43.947Z,7.57
2018-09-22T22:29:12.181Z,6.00
2018-09-22T22:31:40.471Z,7.33
2018-09-22T22:34:08.693Z,8.47
2018-09-22T22:36:36.892Z,6.70
2018-09-22T22:39:06.083Z,7.70
2018-09-22T22:41:34.289Z,6.87
2018-09-22T22:44:02.782Z,6.60
2018-09-22T22:46:30.996Z,8.33
2018-09-22T22:49:01.294Z,8.13
2018-09-22T22:51:29.491Z,6.13
2018-09-22T22:53:57.699Z,6.53
2018-09-22T22:56:25.930Z,6.97
2018-09-22T22:58:54.153Z,6.20
2018-09-22T23:01:22.372Z,9.33
2018-09-22T23:03:50.589Z,7.33
2018-09-22T23:06:18.812Z,6.17
2018-09-22T23:08:47.068Z,7.67
2018-09-22T23:11:17.363Z,8.23
2018-09-22T23:13:45.590Z,8.50
2018-09-22T23:16:13.817Z,9.47
2018-09-22T23:18:42.038Z,9.83
2018-09-22T23:21:10.299Z,8.87
2018-09-22T23:23:38.528Z,11.20
2018-09-22T23:26:06.763Z,9.67
2018-09-22T23:28:34.999Z,8.77
2018-09-22T23:31:03.216Z,10.20
2018-09-22T23:33:31.507Z,7.87
2018-09-22T23:35:59.703Z,8.00
2018-09-22T23:38:27.960Z,10.07
2018-09-22T23:40:58.297Z,8.77
2018-09-22T23:43:27.208Z,10.47
2018-09-22T23:45:55.458Z,8.20
2018-09-22T23:48:23.727Z,7.93
2018-09-22T23:50:51.961Z,7.53
2018-09-22T23:53:20.245Z,13.83
2018-09-22T23:55:48.512Z,8.07
2018-09-22T23:58:16.836Z,6.60
